sensor_id;sensor_type;location;lat;lon;timestamp;P1;durP1;ratioP1;P2;durP2;ratioP2
4355;SDS011;64374;51.482;7.408;2023-07-31T00:01:11;7.13;;;4.30;;
4355;SDS011;64374;51.482;7.408;2023-07-31T00:03:39;6.43;;;3.93;;
4355;SDS011;64374;51.482;7.408;2023-07-31T00:06:07;9.17;;;3.77;;
4355;SDS011;64374;51.482;7.408;2023-07-31T00:08:35;8.30;;;4.33;;
4355;SDS011;64374;51.482;7.408;2023-07-31T00:11:03;6.20;;;3.57;;
4355;SDS011;64374;51.482;7.408;2023-07-31T00:13:36;7.23;;;3.93;;
4355;SDS011;64374;51.482;7.408;2023-07-31T00:16:06;8.80;;;4.90;;
4355;SDS011;64374;51.482;7.408;2023-07-31T00:18:36;5.17;;;3.87;;
4355;SDS011;64374;51.482;7.408;2023-07-31T00:21:05;4.30;;;2.83;;
4355;SDS011;64374;51.482;7.408;2023-07-31T00:23:33;5.20;;;3.53;;
4355;SDS011;64374;51.482;7.408;2023-07-31T00:26:04;7.50;;;3.60;;
4355;SDS011;64374;51.482;7.408;2023-07-31T00:28:33;8.13;;;3.63;;
4355;SDS011;64374;51.482;7.408;2023-07-31T00:31:01;8.53;;;4.00;;
4355;SDS011;64374;51.482;7.408;2023-07-31T00:33:30;7.83;;;4.07;;
4355;SDS011;64374;51.482;7.408;2023-07-31T00:36:00;5.80;;;3.80;;
4355;SDS011;64374;51.482;7.408;2023-07-31T00:38:35;10.73;;;4.50;;
4355;SDS011;64374;51.482;7.408;2023-07-31T00:41:05;10.33;;;5.03;;
4355;SDS011;64374;51.482;7.408;2023-07-31T00:43:33;9.90;;;4.80;;
4355;SDS011;64374;51.482;7.408;2023-07-31T00:46:09;7.03;;;3.87;;
4355;SDS011;64374;51.482;7.408;2023-07-31T00:48:37;9.57;;;4.30;;
4355;SDS011;64374;51.482;7.408;2023-07-31T00:51:10;11.53;;;4.70;;
4355;SDS011;64374;51.482;7.408;2023-07-31T00:53:38;10.47;;;4.37;;
4355;SDS011;64374;51.482;7.408;2023-07-31T00:56:10;8.97;;;3.87;;
4355;SDS011;64374;51.482;7.408;2023-07-31T00:58:39;10.60;;;4.57;;
4355;SDS011;64374;51.482;7.408;2023-07-31T01:01:08;13.50;;;4.33;;
4355;SDS011;64374;51.482;7.408;2023-07-31T01:03:37;9.73;;;4.93;;
4355;SDS011;64374;51.482;7.408;2023-07-31T01:06:19;11.87;;;5.37;;
4355;SDS011;64374;51.482;7.408;2023-07-31T01:08:58;9.50;;;4.23;;
4355;SDS011;64374;51.482;7.408;2023-07-31T01:11:31;14.03;;;4.67;;
4355;SDS011;64374;51.482;7.408;2023-07-31T01:14:02;14.30;;;4.37;;
4355;SDS011;64374;51.482;7.408;2023-07-31T01:16:31;10.13;;;3.93;;
4355;SDS011;64374;51.482;7.408;2023-07-31T01:19:01;17.00;;;5.53;;
4355;SDS011;64374;51.482;7.408;2023-07-31T01:21:40;12.27;;;5.00;;
4355;SDS011;64374;51.482;7.408;2023-07-31T01:24:28;13.20;;;4.97;;
4355;SDS011;64374;51.482;7.408;2023-07-31T01:27:06;13.63;;;5.30;;
4355;SDS011;64374;51.482;7.408;2023-07-31T01:29:38;9.93;;;4.90;;
4355;SDS011;64374;51.482;7.408;2023-07-31T01:32:16;12.93;;;5.40;;
4355;SDS011;64374;51.482;7.408;2023-07-31T01:34:46;14.00;;;5.70;;
4355;SDS011;64374;51.482;7.408;2023-07-31T01:37:16;7.83;;;4.47;;
4355;SDS011;64374;51.482;7.408;2023-07-31T01:39:45;13.40;;;5.53;;
4355;SDS011;64374;51.482;7.408;2023-07-31T01:42:24;8.33;;;4.60;;
4355;SDS011;64374;51.482;7.408;2023-07-31T01:44:55;10.93;;;4.30;;
4355;SDS011;64374;51.482;7.408;2023-07-31T01:47:32;20.23;;;5.20;;
4355;SDS011;64374;51.482;7.408;2023-07-31T01:50:02;13.47;;;5.07;;
4355;SDS011;64374;51.482;7.408;2023-07-31T01:52:33;16.27;;;4.93;;
4355;SDS011;64374;51.482;7.408;2023-07-31T01:55:03;8.07;;;4.23;;
4355;SDS011;64374;51.482;7.408;2023-07-31T01:57:33;13.10;;;5.50;;
4355;SDS011;64374;51.482;7.408;2023-07-31T02:00:04;16.90;;;5.53;;
4355;SDS011;64374;51.482;7.408;2023-07-31T02:02:42;13.03;;;4.70;;
4355;SDS011;64374;51.482;7.408;2023-07-31T02:05:13;11.10;;;4.57;;
4355;SDS011;64374;51.482;7.408;2023-07-31T02:07:43;12.40;;;4.70;;
4355;SDS011;64374;51.482;7.408;2023-07-31T02:10:12;10.40;;;4.97;;
4355;SDS011;64374;51.482;7.408;2023-07-31T02:12:44;6.00;;;4.23;;
4355;SDS011;64374;51.482;7.408;2023-07-31T02:15:15;7.90;;;4.53;;
4355;SDS011;64374;51.482;7.408;2023-07-31T02:17:43;9.93;;;4.60;;
4355;SDS011;64374;51.482;7.408;2023-07-31T02:20:13;11.57;;;4.40;;
4355;SDS011;64374;51.482;7.408;2023-07-31T02:22:42;9.83;;;4.17;;
4355;SDS011;64374;51.482;7.408;2023-07-31T02:25:12;8.73;;;4.80;;
4355;SDS011;64374;51.482;7.408;2023-07-31T02:27:50;8.93;;;4.57;;
4355;SDS011;64374;51.482;7.408;2023-07-31T02:30:18;11.20;;;4.33;;
4355;SDS011;64374;51.482;7.408;2023-07-31T02:32:46;10.97;;;4.93;;
4355;SDS011;64374;51.482;7.408;2023-07-31T02:35:16;10.10;;;4.20;;
4355;SDS011;64374;51.482;7.408;2023-07-31T02:37:45;13.60;;;4.70;;
4355;SDS011;64374;51.482;7.408;2023-07-31T02:40:13;13.00;;;5.30;;
4355;SDS011;64374;51.482;7.408;2023-07-31T02:42:42;10.40;;;4.60;;
4355;SDS011;64374;51.482;7.408;2023-07-31T02:45:18;11.63;;;3.63;;
4355;SDS011;64374;51.482;7.408;2023-07-31T02:47:46;10.90;;;4.80;;
4355;SDS011;64374;51.482;7.408;2023-07-31T02:50:15;10.40;;;4.70;;
4355;SDS011;64374;51.482;7.408;2023-07-31T02:52:46;9.00;;;4.20;;
4355;SDS011;64374;51.482;7.408;2023-07-31T02:55:16;12.30;;;4.50;;
4355;SDS011;64374;51.482;7.408;2023-07-31T02:57:45;13.87;;;5.40;;
4355;SDS011;64374;51.482;7.408;2023-07-31T03:00:14;13.03;;;4.93;;
4355;SDS011;64374;51.482;7.408;2023-07-31T03:02:46;9.50;;;4.27;;
4355;SDS011;64374;51.482;7.408;2023-07-31T03:05:15;10.17;;;5.20;;
4355;SDS011;64374;51.482;7.408;2023-07-31T03:07:45;13.03;;;5.30;;
4355;SDS011;64374;51.482;7.408;2023-07-31T03:10:23;13.33;;;5.47;;
4355;SDS011;64374;51.482;7.408;2023-07-31T03:12:51;14.57;;;5.30;;
4355;SDS011;64374;51.482;7.408;2023-07-31T03:15:19;10.80;;;5.13;;
4355;SDS011;64374;51.482;7.408;2023-07-31T03:17:49;9.07;;;4.73;;
4355;SDS011;64374;51.482;7.408;2023-07-31T03:20:29;15.53;;;5.03;;
4355;SDS011;64374;51.482;7.408;2023-07-31T03:22:57;12.60;;;5.37;;
4355;SDS011;64374;51.482;7.408;2023-07-31T03:25:26;15.07;;;5.47;;
4355;SDS011;64374;51.482;7.408;2023-07-31T03:27:54;15.80;;;5.07;;
4355;SDS011;64374;51.482;7.408;2023-07-31T03:30:22;16.70;;;5.33;;
4355;SDS011;64374;51.482;7.408;2023-07-31T03:32:55;8.50;;;4.50;;
4355;SDS011;64374;51.482;7.408;2023-07-31T03:35:23;12.30;;;4.80;;
4355;SDS011;64374;51.482;7.408;2023-07-31T03:37:53;16.47;;;5.77;;
4355;SDS011;64374;51.482;7.408;2023-07-31T03:40:23;12.37;;;5.20;;
4355;SDS011;64374;51.482;7.408;2023-07-31T03:42:52;17.07;;;4.50;;
4355;SDS011;64374;51.482;7.408;2023-07-31T03:45:23;9.20;;;4.97;;
4355;SDS011;64374;51.482;7.408;2023-07-31T03:47:51;8.93;;;4.63;;
4355;SDS011;64374;51.482;7.408;2023-07-31T03:50:22;16.30;;;4.63;;
4355;SDS011;64374;51.482;7.408;2023-07-31T03:52:51;7.70;;;4.20;;
4355;SDS011;64374;51.482;7.408;2023-07-31T03:55:26;19.53;;;5.37;;
4355;SDS011;64374;51.482;7.408;2023-07-31T03:57:56;9.87;;;3.67;;
4355;SDS011;64374;51.482;7.408;2023-07-31T04:00:27;15.90;;;5.23;;
4355;SDS011;64374;51.482;7.408;2023-07-31T04:02:55;10.57;;;5.10;;
4355;SDS011;64374;51.482;7.408;2023-07-31T04:05:32;13.57;;;5.20;;
4355;SDS011;64374;51.482;7.408;2023-07-31T04:08:00;11.07;;;4.60;;
4355;SDS011;64374;51.482;7.408;2023-07-31T04:10:28;12.87;;;4.50;;
4355;SDS011;64374;51.482;7.408;2023-07-31T04:12:59;16.30;;;5.63;;
4355;SDS011;64374;51.482;7.408;2023-07-31T04:15:27;13.50;;;5.13;;
4355;SDS011;64374;51.482;7.408;2023-07-31T04:17:56;11.50;;;4.80;;
4355;SDS011;64374;51.482;7.408;2023-07-31T04:20:24;9.60;;;4.90;;
4355;SDS011;64374;51.482;7.408;2023-07-31T04:22:59;15.10;;;4.93;;
4355;SDS011;64374;51.482;7.408;2023-07-31T04:25:29;12.97;;;4.77;;
4355;SDS011;64374;51.482;7.408;2023-07-31T04:27:58;11.27;;;4.40;;
4355;SDS011;64374;51.482;7.408;2023-07-31T04:30:28;8.13;;;4.40;;
4355;SDS011;64374;51.482;7.408;2023-07-31T04:32:56;16.30;;;5.03;;
4355;SDS011;64374;51.482;7.408;2023-07-31T04:35:27;9.83;;;4.53;;
4355;SDS011;64374;51.482;7.408;2023-07-31T04:37:57;11.93;;;5.60;;
4355;SDS011;64374;51.482;7.408;2023-07-31T04:40:29;12.77;;;5.10;;
4355;SDS011;64374;51.482;7.408;2023-07-31T04:42:58;9.93;;;4.50;;
4355;SDS011;64374;51.482;7.408;2023-07-31T04:45:26;10.20;;;5.10;;
4355;SDS011;64374;51.482;7.408;2023-07-31T04:47:54;17.00;;;4.60;;
4355;SDS011;64374;51.482;7.408;2023-07-31T04:50:22;10.50;;;5.20;;
4355;SDS011;64374;51.482;7.408;2023-07-31T04:52:50;19.10;;;5.60;;
4355;SDS011;64374;51.482;7.408;2023-07-31T04:55:22;16.57;;;5.53;;
4355;SDS011;64374;51.482;7.408;2023-07-31T04:57:53;5.97;;;4.20;;
4355;SDS011;64374;51.482;7.408;2023-07-31T05:00:21;10.90;;;4.63;;
4355;SDS011;64374;51.482;7.408;2023-07-31T05:05:47;9.07;;;5.13;;
4355;SDS011;64374;51.482;7.408;2023-07-31T05:08:18;11.53;;;4.27;;
4355;SDS011;64374;51.482;7.408;2023-07-31T05:10:47;13.33;;;4.77;;
4355;SDS011;64374;51.482;7.408;2023-07-31T05:13:18;10.20;;;5.13;;
4355;SDS011;64374;51.482;7.408;2023-07-31T05:15:46;9.63;;;4.40;;
4355;SDS011;64374;51.482;7.408;2023-07-31T05:18:17;12.20;;;4.93;;
4355;SDS011;64374;51.482;7.408;2023-07-31T05:20:46;10.47;;;3.90;;
4355;SDS011;64374;51.482;7.408;2023-07-31T05:23:14;16.60;;;4.47;;
4355;SDS011;64374;51.482;7.408;2023-07-31T05:25:42;12.17;;;4.83;;
4355;SDS011;64374;51.482;7.408;2023-07-31T05:28:12;12.80;;;5.10;;
4355;SDS011;64374;51.482;7.408;2023-07-31T05:30:40;6.83;;;4.60;;
4355;SDS011;64374;51.482;7.408;2023-07-31T05:33:08;14.37;;;5.70;;
4355;SDS011;64374;51.482;7.408;2023-07-31T05:35:40;10.63;;;5.37;;
4355;SDS011;64374;51.482;7.408;2023-07-31T05:38:11;13.00;;;5.10;;
4355;SDS011;64374;51.482;7.408;2023-07-31T05:40:39;10.40;;;5.70;;
4355;SDS011;64374;51.482;7.408;2023-07-31T05:43:07;9.53;;;5.53;;
4355;SDS011;64374;51.482;7.408;2023-07-31T05:45:46;13.27;;;5.30;;
4355;SDS011;64374;51.482;7.408;2023-07-31T05:48:17;8.63;;;4.77;;
4355;SDS011;64374;51.482;7.408;2023-07-31T05:50:46;10.63;;;5.57;;
4355;SDS011;64374;51.482;7.408;2023-07-31T05:53:14;13.00;;;4.90;;
4355;SDS011;64374;51.482;7.408;2023-07-31T05:55:43;10.37;;;5.53;;
4355;SDS011;64374;51.482;7.408;2023-07-31T05:58:11;8.93;;;5.03;;
4355;SDS011;64374;51.482;7.408;2023-07-31T06:00:41;8.57;;;5.03;;
4355;SDS011;64374;51.482;7.408;2023-07-31T06:03:32;14.83;;;5.50;;
4355;SDS011;64374;51.482;7.408;2023-07-31T06:06:01;10.77;;;5.33;;
4355;SDS011;64374;51.482;7.408;2023-07-31T06:08:29;15.27;;;6.10;;
4355;SDS011;64374;51.482;7.408;2023-07-31T06:11:00;8.23;;;5.23;;
4355;SDS011;64374;51.482;7.408;2023-07-31T06:13:32;9.23;;;4.97;;
4355;SDS011;64374;51.482;7.408;2023-07-31T06:16:10;10.97;;;4.50;;
4355;SDS011;64374;51.482;7.408;2023-07-31T06:18:43;8.00;;;5.40;;
4355;SDS011;64374;51.482;7.408;2023-07-31T06:21:12;10.37;;;6.77;;
4355;SDS011;64374;51.482;7.408;2023-07-31T06:23:40;8.00;;;4.30;;
4355;SDS011;64374;51.482;7.408;2023-07-31T06:26:11;11.27;;;5.47;;
4355;SDS011;64374;51.482;7.408;2023-07-31T06:28:39;12.03;;;5.70;;
4355;SDS011;64374;51.482;7.408;2023-07-31T06:31:08;8.60;;;5.30;;
4355;SDS011;64374;51.482;7.408;2023-07-31T06:33:39;7.00;;;5.03;;
4355;SDS011;64374;51.482;7.408;2023-07-31T06:36:11;9.00;;;5.30;;
4355;SDS011;64374;51.482;7.408;2023-07-31T06:38:39;7.07;;;5.07;;
4355;SDS011;64374;51.482;7.408;2023-07-31T06:41:07;12.87;;;5.00;;
4355;SDS011;64374;51.482;7.408;2023-07-31T06:43:35;6.00;;;4.80;;
4355;SDS011;64374;51.482;7.408;2023-07-31T06:46:04;12.90;;;6.20;;
4355;SDS011;64374;51.482;7.408;2023-07-31T06:48:37;7.83;;;5.17;;
4355;SDS011;64374;51.482;7.408;2023-07-31T06:51:09;8.10;;;5.57;;
4355;SDS011;64374;51.482;7.408;2023-07-31T06:53:42;9.93;;;5.33;;
4355;SDS011;64374;51.482;7.408;2023-07-31T06:56:11;7.43;;;5.60;;
4355;SDS011;64374;51.482;7.408;2023-07-31T06:58:39;10.30;;;5.03;;
4355;SDS011;64374;51.482;7.408;2023-07-31T07:01:08;9.10;;;4.87;;
4355;SDS011;64374;51.482;7.408;2023-07-31T07:03:36;6.50;;;4.70;;
4355;SDS011;64374;51.482;7.408;2023-07-31T07:06:04;11.13;;;4.97;;
4355;SDS011;64374;51.482;7.408;2023-07-31T07:08:34;8.07;;;4.90;;
4355;SDS011;64374;51.482;7.408;2023-07-31T07:11:02;9.80;;;5.20;;
4355;SDS011;64374;51.482;7.408;2023-07-31T07:13:30;5.53;;;4.27;;
4355;SDS011;64374;51.482;7.408;2023-07-31T07:15:58;5.83;;;4.20;;
4355;SDS011;64374;51.482;7.408;2023-07-31T07:18:26;6.70;;;4.60;;
4355;SDS011;64374;51.482;7.408;2023-07-31T07:20:56;7.70;;;4.00;;
4355;SDS011;64374;51.482;7.408;2023-07-31T07:23:28;6.40;;;4.20;;
4355;SDS011;64374;51.482;7.408;2023-07-31T07:25:58;7.73;;;4.57;;
4355;SDS011;64374;51.482;7.408;2023-07-31T07:28:27;5.80;;;4.33;;
4355;SDS011;64374;51.482;7.408;2023-07-31T07:31:03;6.80;;;4.40;;
4355;SDS011;64374;51.482;7.408;2023-07-31T07:33:34;9.50;;;5.10;;
4355;SDS011;64374;51.482;7.408;2023-07-31T07:36:02;11.63;;;5.20;;
4355;SDS011;64374;51.482;7.408;2023-07-31T07:38:32;7.27;;;4.33;;
4355;SDS011;64374;51.482;7.408;2023-07-31T07:41:02;10.80;;;4.87;;
4355;SDS011;64374;51.482;7.408;2023-07-31T07:43:30;7.60;;;5.07;;
4355;SDS011;64374;51.482;7.408;2023-07-31T07:45:58;7.77;;;5.10;;
4355;SDS011;64374;51.482;7.408;2023-07-31T07:48:26;5.43;;;4.60;;
4355;SDS011;64374;51.482;7.408;2023-07-31T07:50:55;6.00;;;4.33;;
4355;SDS011;64374;51.482;7.408;2023-07-31T07:53:23;9.27;;;4.80;;
4355;SDS011;64374;51.482;7.408;2023-07-31T07:55:51;5.70;;;4.77;;
4355;SDS011;64374;51.482;7.408;2023-07-31T07:58:23;6.03;;;4.00;;
4355;SDS011;64374;51.482;7.408;2023-07-31T08:00:51;5.77;;;4.10;;
4355;SDS011;64374;51.482;7.408;2023-07-31T08:03:19;9.57;;;4.23;;
4355;SDS011;64374;51.482;7.408;2023-07-31T08:05:51;7.67;;;4.97;;
4355;SDS011;64374;51.482;7.408;2023-07-31T08:08:20;8.03;;;4.40;;
4355;SDS011;64374;51.482;7.408;2023-07-31T08:10:48;15.07;;;4.60;;
4355;SDS011;64374;51.482;7.408;2023-07-31T08:13:16;6.63;;;4.00;;
4355;SDS011;64374;51.482;7.408;2023-07-31T08:15:46;9.47;;;4.70;;
4355;SDS011;64374;51.482;7.408;2023-07-31T08:18:15;7.77;;;4.33;;
4355;SDS011;64374;51.482;7.408;2023-07-31T08:20:44;6.50;;;4.13;;
4355;SDS011;64374;51.482;7.408;2023-07-31T08:23:12;6.27;;;4.03;;
4355;SDS011;64374;51.482;7.408;2023-07-31T08:25:41;8.40;;;3.93;;
4355;SDS011;64374;51.482;7.408;2023-07-31T08:28:11;10.57;;;4.97;;
4355;SDS011;64374;51.482;7.408;2023-07-31T08:30:40;9.67;;;4.37;;
4355;SDS011;64374;51.482;7.408;2023-07-31T08:33:13;9.50;;;4.13;;
4355;SDS011;64374;51.482;7.408;2023-07-31T08:35:43;8.83;;;5.27;;
4355;SDS011;64374;51.482;7.408;2023-07-31T08:38:11;5.80;;;3.93;;
4355;SDS011;64374;51.482;7.408;2023-07-31T08:40:40;6.77;;;4.60;;
4355;SDS011;64374;51.482;7.408;2023-07-31T08:43:10;6.67;;;3.53;;
4355;SDS011;64374;51.482;7.408;2023-07-31T08:45:52;5.67;;;3.60;;
4355;SDS011;64374;51.482;7.408;2023-07-31T08:48:23;7.30;;;4.10;;
4355;SDS011;64374;51.482;7.408;2023-07-31T08:50:51;6.33;;;3.50;;
4355;SDS011;64374;51.482;7.408;2023-07-31T08:53:20;5.03;;;3.23;;
4355;SDS011;64374;51.482;7.408;2023-07-31T08:55:50;10.30;;;3.50;;
4355;SDS011;64374;51.482;7.408;2023-07-31T08:58:20;3.77;;;3.27;;
4355;SDS011;64374;51.482;7.408;2023-07-31T09:00:50;7.30;;;3.80;;
4355;SDS011;64374;51.482;7.408;2023-07-31T09:03:20;3.50;;;2.40;;
4355;SDS011;64374;51.482;7.408;2023-07-31T09:05:52;5.07;;;3.00;;
4355;SDS011;64374;51.482;7.408;2023-07-31T09:08:22;4.23;;;2.73;;
4355;SDS011;64374;51.482;7.408;2023-07-31T09:10:51;4.53;;;2.73;;
4355;SDS011;64374;51.482;7.408;2023-07-31T09:13:22;4.90;;;2.80;;
4355;SDS011;64374;51.482;7.408;2023-07-31T09:15:50;3.20;;;2.87;;
4355;SDS011;64374;51.482;7.408;2023-07-31T09:18:18;6.83;;;3.03;;
4355;SDS011;64374;51.482;7.408;2023-07-31T09:21:01;6.23;;;3.37;;
4355;SDS011;64374;51.482;7.408;2023-07-31T09:23:42;3.97;;;2.50;;
4355;SDS011;64374;51.482;7.408;2023-07-31T09:26:11;4.07;;;3.20;;
4355;SDS011;64374;51.482;7.408;2023-07-31T09:28:59;5.40;;;2.90;;
4355;SDS011;64374;51.482;7.408;2023-07-31T09:31:37;6.80;;;3.30;;
4355;SDS011;64374;51.482;7.408;2023-07-31T09:34:07;5.43;;;3.10;;
4355;SDS011;64374;51.482;7.408;2023-07-31T09:36:42;4.50;;;2.80;;
4355;SDS011;64374;51.482;7.408;2023-07-31T09:39:11;6.47;;;3.40;;
4355;SDS011;64374;51.482;7.408;2023-07-31T09:41:42;3.57;;;2.63;;
4355;SDS011;64374;51.482;7.408;2023-07-31T09:44:14;3.37;;;3.00;;
4355;SDS011;64374;51.482;7.408;2023-07-31T09:46:42;3.50;;;3.03;;
4355;SDS011;64374;51.482;7.408;2023-07-31T09:49:11;6.73;;;2.80;;
4355;SDS011;64374;51.482;7.408;2023-07-31T09:51:41;5.80;;;3.33;;
4355;SDS011;64374;51.482;7.408;2023-07-31T09:54:24;10.53;;;3.37;;
4355;SDS011;64374;51.482;7.408;2023-07-31T09:56:52;5.63;;;2.70;;
4355;SDS011;64374;51.482;7.408;2023-07-31T09:59:22;5.77;;;3.03;;
4355;SDS011;64374;51.482;7.408;2023-07-31T10:01:56;2.57;;;2.37;;
4355;SDS011;64374;51.482;7.408;2023-07-31T10:04:25;2.90;;;2.40;;
4355;SDS011;64374;51.482;7.408;2023-07-31T10:06:57;4.30;;;3.20;;
4355;SDS011;64374;51.482;7.408;2023-07-31T10:09:26;2.60;;;2.40;;
4355;SDS011;64374;51.482;7.408;2023-07-31T10:11:59;4.63;;;2.70;;
4355;SDS011;64374;51.482;7.408;2023-07-31T10:14:36;4.30;;;3.10;;
4355;SDS011;64374;51.482;7.408;2023-07-31T10:17:05;5.20;;;3.07;;
4355;SDS011;64374;51.482;7.408;2023-07-31T10:19:34;3.27;;;2.97;;
4355;SDS011;64374;51.482;7.408;2023-07-31T10:22:05;3.63;;;2.50;;
4355;SDS011;64374;51.482;7.408;2023-07-31T10:24:39;6.03;;;2.90;;
4355;SDS011;64374;51.482;7.408;2023-07-31T10:27:09;2.00;;;1.90;;
4355;SDS011;64374;51.482;7.408;2023-07-31T10:29:38;2.40;;;2.20;;
4355;SDS011;64374;51.482;7.408;2023-07-31T10:32:07;2.83;;;2.20;;
4355;SDS011;64374;51.482;7.408;2023-07-31T10:34:44;3.30;;;3.00;;
4355;SDS011;64374;51.482;7.408;2023-07-31T10:37:28;3.63;;;3.10;;
4355;SDS011;64374;51.482;7.408;2023-07-31T10:40:06;3.60;;;2.60;;
4355;SDS011;64374;51.482;7.408;2023-07-31T10:42:38;2.10;;;1.90;;
4355;SDS011;64374;51.482;7.408;2023-07-31T10:45:27;1.70;;;1.60;;
4355;SDS011;64374;51.482;7.408;2023-07-31T10:48:01;2.43;;;2.10;;
4355;SDS011;64374;51.482;7.408;2023-07-31T10:50:30;2.40;;;1.83;;
4355;SDS011;64374;51.482;7.408;2023-07-31T10:53:01;3.77;;;1.87;;
4355;SDS011;64374;51.482;7.408;2023-07-31T10:55:35;1.60;;;1.50;;
4355;SDS011;64374;51.482;7.408;2023-07-31T10:58:08;1.50;;;1.33;;
4355;SDS011;64374;51.482;7.408;2023-07-31T11:00:40;1.53;;;1.37;;
4355;SDS011;64374;51.482;7.408;2023-07-31T11:03:16;2.63;;;1.50;;
4355;SDS011;64374;51.482;7.408;2023-07-31T11:05:46;3.77;;;1.80;;
4355;SDS011;64374;51.482;7.408;2023-07-31T11:08:18;2.20;;;2.03;;
4355;SDS011;64374;51.482;7.408;2023-07-31T11:10:51;1.73;;;1.63;;
4355;SDS011;64374;51.482;7.408;2023-07-31T11:13:33;2.60;;;2.40;;
4355;SDS011;64374;51.482;7.408;2023-07-31T11:16:10;3.47;;;2.13;;
4355;SDS011;64374;51.482;7.408;2023-07-31T11:18:39;4.30;;;2.83;;
4355;SDS011;64374;51.482;7.408;2023-07-31T11:21:11;3.17;;;2.57;;
4355;SDS011;64374;51.482;7.408;2023-07-31T11:23:41;2.50;;;2.30;;
4355;SDS011;64374;51.482;7.408;2023-07-31T11:26:13;3.70;;;2.63;;
4355;SDS011;64374;51.482;7.408;2023-07-31T11:28:42;3.30;;;2.43;;
4355;SDS011;64374;51.482;7.408;2023-07-31T11:31:11;4.07;;;3.17;;
4355;SDS011;64374;51.482;7.408;2023-07-31T11:33:42;6.50;;;3.53;;
4355;SDS011;64374;51.482;7.408;2023-07-31T11:36:14;6.30;;;4.03;;
4355;SDS011;64374;51.482;7.408;2023-07-31T11:38:47;5.20;;;3.47;;
4355;SDS011;64374;51.482;7.408;2023-07-31T11:41:17;4.73;;;3.37;;
4355;SDS011;64374;51.482;7.408;2023-07-31T11:43:46;5.20;;;3.50;;
4355;SDS011;64374;51.482;7.408;2023-07-31T11:46:15;6.10;;;3.73;;
4355;SDS011;64374;51.482;7.408;2023-07-31T11:48:46;8.53;;;3.73;;
4355;SDS011;64374;51.482;7.408;2023-07-31T11:51:16;7.17;;;4.33;;
4355;SDS011;64374;51.482;7.408;2023-07-31T11:53:49;4.50;;;3.90;;
4355;SDS011;64374;51.482;7.408;2023-07-31T11:56:21;8.17;;;3.57;;
4355;SDS011;64374;51.482;7.408;2023-07-31T11:58:51;8.23;;;3.33;;
4355;SDS011;64374;51.482;7.408;2023-07-31T12:01:21;6.60;;;3.63;;
4355;SDS011;64374;51.482;7.408;2023-07-31T12:03:54;5.07;;;3.47;;
4355;SDS011;64374;51.482;7.408;2023-07-31T12:06:32;8.07;;;4.00;;
4355;SDS011;64374;51.482;7.408;2023-07-31T12:09:05;7.60;;;4.30;;
4355;SDS011;64374;51.482;7.408;2023-07-31T12:11:42;4.60;;;3.20;;
4355;SDS011;64374;51.482;7.408;2023-07-31T12:14:19;4.63;;;3.40;;
4355;SDS011;64374;51.482;7.408;2023-07-31T12:17:00;6.00;;;3.40;;
4355;SDS011;64374;51.482;7.408;2023-07-31T12:19:36;4.87;;;3.93;;
4355;SDS011;64374;51.482;7.408;2023-07-31T12:22:10;3.97;;;3.03;;
4355;SDS011;64374;51.482;7.408;2023-07-31T12:24:47;3.17;;;2.50;;
4355;SDS011;64374;51.482;7.408;2023-07-31T12:27:16;5.37;;;2.90;;
4355;SDS011;64374;51.482;7.408;2023-07-31T12:29:48;5.47;;;3.30;;
4355;SDS011;64374;51.482;7.408;2023-07-31T12:32:20;9.53;;;2.70;;
4355;SDS011;64374;51.482;7.408;2023-07-31T12:34:49;4.03;;;2.60;;
4355;SDS011;64374;51.482;7.408;2023-07-31T12:37:20;3.83;;;2.70;;
4355;SDS011;64374;51.482;7.408;2023-07-31T12:39:49;4.17;;;3.00;;
4355;SDS011;64374;51.482;7.408;2023-07-31T12:42:21;3.07;;;2.77;;
4355;SDS011;64374;51.482;7.408;2023-07-31T12:44:50;7.50;;;2.80;;
4355;SDS011;64374;51.482;7.408;2023-07-31T12:47:18;4.20;;;2.63;;
4355;SDS011;64374;51.482;7.408;2023-07-31T12:49:54;3.97;;;2.47;;
4355;SDS011;64374;51.482;7.408;2023-07-31T12:52:24;2.50;;;2.30;;
4355;SDS011;64374;51.482;7.408;2023-07-31T12:54:56;4.10;;;2.93;;
4355;SDS011;64374;51.482;7.408;2023-07-31T12:57:27;3.30;;;2.70;;
4355;SDS011;64374;51.482;7.408;2023-07-31T12:59:57;3.37;;;2.53;;
4355;SDS011;64374;51.482;7.408;2023-07-31T13:02:25;7.33;;;3.23;;
4355;SDS011;64374;51.482;7.408;2023-07-31T13:04:56;4.27;;;2.47;;
4355;SDS011;64374;51.482;7.408;2023-07-31T13:07:24;4.03;;;2.43;;
4355;SDS011;64374;51.482;7.408;2023-07-31T13:09:56;3.60;;;2.30;;
4355;SDS011;64374;51.482;7.408;2023-07-31T13:12:30;3.90;;;2.10;;
4355;SDS011;64374;51.482;7.408;2023-07-31T13:14:58;4.07;;;3.10;;
4355;SDS011;64374;51.482;7.408;2023-07-31T13:17:29;2.87;;;2.23;;
4355;SDS011;64374;51.482;7.408;2023-07-31T13:20:00;3.63;;;1.90;;
4355;SDS011;64374;51.482;7.408;2023-07-31T13:22:28;3.60;;;2.50;;
4355;SDS011;64374;51.482;7.408;2023-07-31T13:25:00;2.70;;;2.20;;
4355;SDS011;64374;51.482;7.408;2023-07-31T13:27:29;6.33;;;2.60;;
4355;SDS011;64374;51.482;7.408;2023-07-31T13:29:57;2.17;;;1.97;;
4355;SDS011;64374;51.482;7.408;2023-07-31T13:32:26;5.53;;;2.10;;
4355;SDS011;64374;51.482;7.408;2023-07-31T13:34:54;5.60;;;2.30;;
4355;SDS011;64374;51.482;7.408;2023-07-31T13:37:25;3.10;;;2.10;;
4355;SDS011;64374;51.482;7.408;2023-07-31T13:39:53;4.87;;;2.20;;
4355;SDS011;64374;51.482;7.408;2023-07-31T13:42:25;5.13;;;2.27;;
4355;SDS011;64374;51.482;7.408;2023-07-31T13:44:55;3.40;;;2.33;;
4355;SDS011;64374;51.482;7.408;2023-07-31T13:47:25;5.93;;;2.90;;
4355;SDS011;64374;51.482;7.408;2023-07-31T13:49:56;4.73;;;2.60;;
4355;SDS011;64374;51.482;7.408;2023-07-31T13:52:25;2.70;;;2.03;;
4355;SDS011;64374;51.482;7.408;2023-07-31T13:54:53;4.13;;;2.50;;
4355;SDS011;64374;51.482;7.408;2023-07-31T13:57:26;3.20;;;2.30;;
4355;SDS011;64374;51.482;7.408;2023-07-31T13:59:57;3.00;;;2.40;;
4355;SDS011;64374;51.482;7.408;2023-07-31T14:02:25;2.67;;;2.47;;
4355;SDS011;64374;51.482;7.408;2023-07-31T14:04:53;3.10;;;2.80;;
4355;SDS011;64374;51.482;7.408;2023-07-31T14:07:24;3.27;;;2.97;;
4355;SDS011;64374;51.482;7.408;2023-07-31T14:09:52;3.10;;;2.77;;
4355;SDS011;64374;51.482;7.408;2023-07-31T14:12:20;4.50;;;3.20;;
4355;SDS011;64374;51.482;7.408;2023-07-31T14:15:09;4.93;;;3.27;;
4355;SDS011;64374;51.482;7.408;2023-07-31T14:17:38;3.53;;;3.07;;
4355;SDS011;64374;51.482;7.408;2023-07-31T14:20:07;4.30;;;2.97;;
4355;SDS011;64374;51.482;7.408;2023-07-31T14:22:37;4.27;;;2.87;;
4355;SDS011;64374;51.482;7.408;2023-07-31T14:25:05;3.30;;;2.97;;
4355;SDS011;64374;51.482;7.408;2023-07-31T14:27:33;4.53;;;3.30;;
4355;SDS011;64374;51.482;7.408;2023-07-31T14:30:02;6.40;;;3.20;;
4355;SDS011;64374;51.482;7.408;2023-07-31T14:32:32;7.77;;;3.73;;
4355;SDS011;64374;51.482;7.408;2023-07-31T14:35:00;3.57;;;3.20;;
4355;SDS011;64374;51.482;7.408;2023-07-31T14:37:36;3.83;;;3.33;;
4355;SDS011;64374;51.482;7.408;2023-07-31T14:40:06;4.17;;;3.30;;
4355;SDS011;64374;51.482;7.408;2023-07-31T14:42:35;4.50;;;3.47;;
4355;SDS011;64374;51.482;7.408;2023-07-31T14:45:03;3.57;;;2.93;;
4355;SDS011;64374;51.482;7.408;2023-07-31T14:47:36;4.53;;;3.20;;
4355;SDS011;64374;51.482;7.408;2023-07-31T14:50:05;3.93;;;3.40;;
4355;SDS011;64374;51.482;7.408;2023-07-31T14:52:33;4.87;;;3.47;;
4355;SDS011;64374;51.482;7.408;2023-07-31T14:55:02;4.43;;;2.93;;
4355;SDS011;64374;51.482;7.408;2023-07-31T14:57:30;4.53;;;2.97;;
4355;SDS011;64374;51.482;7.408;2023-07-31T14:59:58;5.40;;;3.17;;
4355;SDS011;64374;51.482;7.408;2023-07-31T15:02:27;4.73;;;3.90;;
4355;SDS011;64374;51.482;7.408;2023-07-31T15:04:56;5.37;;;3.10;;
4355;SDS011;64374;51.482;7.408;2023-07-31T15:07:25;5.30;;;3.53;;
4355;SDS011;64374;51.482;7.408;2023-07-31T15:09:53;5.27;;;3.00;;
4355;SDS011;64374;51.482;7.408;2023-07-31T15:12:27;4.20;;;3.10;;
4355;SDS011;64374;51.482;7.408;2023-07-31T15:14:55;4.03;;;2.90;;
4355;SDS011;64374;51.482;7.408;2023-07-31T15:17:23;4.87;;;3.50;;
4355;SDS011;64374;51.482;7.408;2023-07-31T15:19:51;5.63;;;3.43;;
4355;SDS011;64374;51.482;7.408;2023-07-31T15:22:21;4.27;;;3.17;;